createdAt,value
2022-11-17T00:01:19.455Z,14.65
2022-11-17T00:03:50.439Z,14.38
2022-11-17T00:06:20.396Z,13.82
2022-11-17T00:08:47.935Z,13.95
2022-11-17T00:11:15.295Z,13.05
2022-11-17T00:14:02.752Z,14.25
2022-11-17T00:16:29.907Z,13.88
2022-11-17T00:19:15.928Z,14.38
2022-11-17T00:21:43.095Z,13.63
2022-11-17T00:24:10.230Z,14.45
2022-11-17T00:26:57.624Z,13.02
2022-11-17T00:29:24.822Z,14.00
2022-11-17T00:32:10.626Z,14.20
2022-11-17T00:34:37.898Z,13.80
2022-11-17T00:37:05.860Z,13.35
2022-11-17T00:39:33.590Z,14.00
2022-11-17T00:42:00.790Z,13.57
2022-11-17T00:44:28.168Z,13.68
2022-11-17T00:46:55.363Z,13.15
2022-11-17T00:49:25.184Z,13.55
2022-11-17T00:51:52.849Z,14.13
2022-11-17T00:54:20.049Z,14.15
2022-11-17T00:56:47.714Z,13.20
2022-11-17T00:59:15.293Z,13.38
2022-11-17T01:01:42.986Z,13.65
2022-11-17T01:04:12.728Z,12.80
2022-11-17T01:06:41.728Z,13.15
2022-11-17T01:09:12.044Z,13.35
2022-11-17T01:11:39.571Z,12.73
2022-11-17T01:14:07.140Z,12.38
2022-11-17T01:16:34.524Z,12.68
2022-11-17T01:19:02.530Z,13.05
2022-11-17T01:21:30.538Z,13.73
2022-11-17T01:23:58.560Z,12.70
2022-11-17T01:26:30.571Z,12.45
2022-11-17T01:28:58.164Z,13.23
2022-11-17T01:31:26.681Z,12.20
2022-11-17T01:33:53.908Z,12.05
2022-11-17T01:36:25.078Z,12.63
2022-11-17T01:38:52.572Z,13.15
2022-11-17T01:41:20.961Z,12.68
2022-11-17T01:43:48.171Z,12.77
2022-11-17T01:46:24.215Z,13.15
2022-11-17T01:48:51.971Z,12.68
2022-11-17T01:51:19.480Z,12.15
2022-11-17T01:53:47.906Z,11.15
2022-11-17T01:56:18.833Z,13.10
2022-11-17T01:58:52.176Z,12.57
2022-11-17T02:01:19.428Z,12.43
2022-11-17T02:03:48.749Z,12.40
2022-11-17T02:06:33.805Z,11.48
2022-11-17T02:09:01.849Z,11.80
2022-11-17T02:11:36.024Z,11.90
2022-11-17T02:14:05.177Z,11.27
2022-11-17T02:16:32.401Z,11.23
2022-11-17T02:18:59.571Z,12.43
2022-11-17T02:21:29.530Z,11.05
2022-11-17T02:24:02.694Z,12.00
2022-11-17T02:26:29.855Z,12.65
2022-11-17T02:28:56.996Z,11.13
2022-11-17T02:31:34.140Z,12.18
2022-11-17T02:34:21.672Z,11.43
2022-11-17T02:37:01.377Z,11.98
2022-11-17T02:39:48.825Z,10.75
2022-11-17T02:42:42.127Z,11.63
2022-11-17T02:45:10.399Z,11.50
2022-11-17T02:47:39.297Z,11.15
2022-11-17T02:50:08.120Z,11.95
2022-11-17T02:52:35.418Z,11.95
2022-11-17T02:55:03.468Z,11.35
2022-11-17T02:57:34.787Z,12.20
2022-11-17T03:00:08.493Z,12.48
2022-11-17T03:02:35.686Z,12.38
2022-11-17T03:05:20.865Z,12.30
2022-11-17T03:07:47.999Z,11.63
2022-11-17T03:10:22.972Z,11.77
2022-11-17T03:12:53.159Z,12.55
2022-11-17T03:15:20.332Z,11.90
2022-11-17T03:17:47.482Z,12.20
2022-11-17T03:20:17.415Z,12.57
2022-11-17T03:22:50.871Z,12.23
2022-11-17T03:25:19.784Z,11.82
2022-11-17T03:27:49.133Z,12.10
2022-11-17T03:30:16.883Z,12.95
2022-11-17T03:32:47.409Z,12.98
2022-11-17T03:35:16.897Z,12.10
2022-11-17T03:37:46.843Z,11.93
2022-11-17T03:40:15.627Z,12.85
2022-11-17T03:42:45.532Z,12.57
2022-11-17T03:45:18.294Z,13.20
2022-11-17T03:47:46.126Z,12.80
2022-11-17T03:50:16.047Z,11.52
2022-11-17T03:52:43.634Z,12.73
2022-11-17T03:55:11.207Z,11.50
2022-11-17T03:57:46.898Z,12.55
2022-11-17T04:00:15.594Z,12.38
2022-11-17T04:02:47.121Z,12.25
2022-11-17T04:05:15.745Z,13.80
2022-11-17T04:07:44.340Z,12.90
2022-11-17T04:10:12.821Z,12.75
2022-11-17T04:12:58.653Z,12.55
2022-11-17T04:15:44.842Z,12.95
2022-11-17T04:18:12.108Z,14.00
2022-11-17T04:20:39.300Z,13.50
2022-11-17T04:23:07.718Z,14.10
2022-11-17T04:25:56.738Z,14.40
2022-11-17T04:28:36.874Z,15.88
2022-11-17T04:31:10.248Z,16.15
2022-11-17T04:33:38.624Z,15.05
2022-11-17T04:36:06.156Z,16.98
2022-11-17T04:38:33.676Z,15.48
2022-11-17T04:41:24.139Z,14.85
2022-11-17T04:43:51.555Z,16.70
2022-11-17T04:46:19.420Z,16.15
2022-11-17T04:48:47.602Z,16.83
2022-11-17T04:51:15.523Z,14.75
2022-11-17T04:53:43.141Z,16.63
2022-11-17T04:56:10.674Z,16.58
2022-11-17T04:58:37.871Z,15.57
2022-11-17T05:01:14.522Z,16.15
2022-11-17T05:03:54.999Z,15.63
2022-11-17T05:06:54.788Z,15.05
2022-11-17T05:09:21.936Z,15.23
2022-11-17T05:12:07.729Z,14.95
2022-11-17T05:14:34.861Z,14.88
2022-11-17T05:17:11.917Z,13.15
2022-11-17T05:19:39.293Z,14.15
2022-11-17T05:22:26.168Z,13.90
2022-11-17T05:24:53.570Z,14.13
2022-11-17T05:27:21.458Z,13.40
2022-11-17T05:29:48.632Z,13.85
2022-11-17T05:32:15.917Z,12.85
2022-11-17T05:34:43.145Z,11.93
2022-11-17T05:37:10.459Z,13.25
2022-11-17T05:39:37.951Z,12.93
2022-11-17T05:42:05.372Z,13.40
2022-11-17T05:44:32.544Z,12.60
2022-11-17T05:46:59.984Z,12.05
2022-11-17T05:49:27.156Z,12.50
2022-11-17T05:51:54.388Z,13.00
2022-11-17T05:54:21.592Z,13.43
2022-11-17T05:57:01.033Z,12.63
2022-11-17T05:59:30.324Z,11.80
2022-11-17T06:02:00.588Z,11.57
2022-11-17T06:04:28.098Z,12.05
2022-11-17T06:06:59.431Z,11.63
2022-11-17T06:09:28.219Z,12.18
2022-11-17T06:11:56.819Z,13.15
2022-11-17T06:14:25.779Z,13.70
2022-11-17T06:16:56.350Z,12.20
2022-11-17T06:19:26.877Z,12.15
2022-11-17T06:22:11.639Z,13.30
2022-11-17T06:24:40.024Z,12.30
2022-11-17T06:27:07.286Z,11.93
2022-11-17T06:29:38.176Z,12.48
2022-11-17T06:32:08.223Z,12.30
2022-11-17T06:34:35.711Z,12.80
2022-11-17T06:37:03.092Z,12.63
2022-11-17T06:39:30.326Z,11.82
2022-11-17T06:41:57.687Z,13.48
2022-11-17T06:44:24.848Z,12.20
2022-11-17T06:46:52.076Z,12.02
2022-11-17T06:49:19.695Z,11.45
2022-11-17T06:51:46.916Z,11.85
2022-11-17T06:54:15.006Z,11.40
2022-11-17T06:56:43.728Z,13.60
2022-11-17T06:59:10.930Z,11.38
2022-11-17T07:01:38.313Z,11.30
2022-11-17T07:04:05.762Z,11.73
2022-11-17T07:06:36.518Z,11.73
2022-11-17T07:09:03.758Z,10.95
2022-11-17T07:11:31.050Z,10.57
2022-11-17T07:13:58.542Z,10.13
2022-11-17T07:16:25.799Z,9.13
2022-11-17T07:18:53.780Z,9.07
2022-11-17T07:21:22.531Z,10.18
2022-11-17T07:23:49.746Z,9.88
2022-11-17T07:26:16.922Z,9.32
2022-11-17T07:28:44.198Z,8.73
2022-11-17T07:31:11.380Z,9.45
2022-11-17T07:33:38.660Z,8.88
2022-11-17T07:36:06.951Z,7.57
2022-11-17T07:38:35.464Z,8.18
2022-11-17T07:41:03.792Z,7.72
2022-11-17T07:43:31.409Z,7.97
2022-11-17T07:45:58.607Z,8.73
2022-11-17T07:48:25.861Z,7.20
2022-11-17T07:50:53.081Z,7.25
2022-11-17T07:53:20.364Z,8.02
2022-11-17T07:55:47.546Z,7.85
2022-11-17T07:58:14.709Z,7.35
2022-11-17T08:00:41.941Z,7.22
2022-11-17T08:03:10.161Z,7.20
2022-11-17T08:05:43.371Z,6.88
2022-11-17T08:08:13.089Z,7.40
2022-11-17T08:10:40.684Z,8.00
2022-11-17T08:13:08.191Z,8.02
2022-11-17T08:15:36.544Z,6.40
2022-11-17T08:18:04.490Z,7.93
2022-11-17T08:20:31.875Z,7.75
2022-11-17T08:22:59.734Z,7.20
2022-11-17T08:25:27.832Z,8.18
2022-11-17T08:27:57.681Z,6.88
2022-11-17T08:30:28.158Z,7.70
2022-11-17T08:32:55.634Z,7.75
2022-11-17T08:35:24.246Z,8.15
2022-11-17T08:37:51.528Z,7.88
2022-11-17T08:40:18.872Z,7.40
2022-11-17T08:42:46.589Z,9.13
2022-11-17T08:45:14.269Z,7.97
2022-11-17T08:47:41.675Z,8.73
2022-11-17T08:50:09.519Z,8.68
2022-11-17T08:52:36.721Z,8.35
2022-11-17T08:55:05.850Z,8.98
2022-11-17T08:57:33.703Z,8.00
2022-11-17T09:00:01.601Z,8.27
2022-11-17T09:02:29.108Z,8.43
2022-11-17T09:04:56.306Z,8.25
2022-11-17T09:07:23.573Z,9.55
2022-11-17T09:09:50.822Z,9.68
2022-11-17T09:12:18.982Z,9.25
2022-11-17T09:14:46.222Z,8.65
2022-11-17T09:17:13.392Z,9.25
2022-11-17T09:19:40.607Z,8.70
2022-11-17T09:22:08.014Z,8.88
2022-11-17T09:24:35.307Z,10.00
2022-11-17T09:27:05.276Z,9.55
2022-11-17T09:29:32.565Z,9.63
2022-11-17T09:31:59.772Z,9.45
2022-11-17T09:34:27.504Z,9.48
2022-11-17T09:36:54.733Z,10.77
2022-11-17T09:39:21.977Z,10.05
2022-11-17T09:41:51.309Z,9.45
2022-11-17T09:44:24.634Z,9.93
2022-11-17T09:46:58.159Z,9.85
2022-11-17T09:49:25.369Z,9.85
2022-11-17T09:51:53.073Z,10.38
2022-11-17T09:54:38.955Z,9.60
2022-11-17T09:57:07.047Z,9.07
2022-11-17T09:59:34.477Z,9.57
2022-11-17T10:02:01.673Z,9.52
2022-11-17T10:04:30.201Z,9.63
2022-11-17T10:06:58.638Z,9.93
2022-11-17T10:09:37.222Z,9.85
2022-11-17T10:12:25.408Z,9.52
2022-11-17T10:14:52.885Z,9.38
2022-11-17T10:17:20.093Z,10.90
2022-11-17T10:19:47.312Z,10.07
2022-11-17T10:22:33.861Z,10.73
2022-11-17T10:25:01.069Z,9.70
2022-11-17T10:27:28.374Z,10.10
2022-11-17T10:29:59.784Z,10.50
2022-11-17T10:32:27.912Z,11.23
2022-11-17T10:34:55.209Z,10.77
2022-11-17T10:37:24.433Z,11.05
2022-11-17T10:39:51.612Z,11.55
2022-11-17T10:42:18.769Z,11.50
2022-11-17T10:44:51.455Z,11.48
2022-11-17T10:47:48.371Z,12.45
2022-11-17T10:50:23.914Z,11.77
2022-11-17T10:52:52.551Z,12.80
2022-11-17T10:55:31.689Z,11.82
2022-11-17T10:58:05.835Z,12.02
2022-11-17T11:00:37.451Z,12.27
2022-11-17T11:03:04.759Z,12.07
2022-11-17T11:05:32.426Z,11.75
2022-11-17T11:08:20.620Z,12.00
2022-11-17T11:10:50.725Z,11.18
2022-11-17T11:13:21.166Z,11.70
2022-11-17T11:15:48.629Z,12.32
2022-11-17T11:18:17.505Z,12.68
2022-11-17T11:20:44.870Z,12.27
2022-11-17T11:23:18.676Z,11.38
2022-11-17T11:25:50.339Z,12.80
2022-11-17T11:28:23.664Z,11.40
2022-11-17T11:31:02.837Z,12.57
2022-11-17T11:33:30.214Z,12.48
2022-11-17T11:36:15.249Z,11.88
2022-11-17T11:38:48.801Z,11.95
2022-11-17T11:41:29.561Z,12.73
2022-11-17T11:44:03.151Z,13.07
2022-11-17T11:46:39.529Z,11.68
2022-11-17T11:49:27.263Z,12.35
2022-11-17T11:51:55.085Z,12.45
2022-11-17T11:54:25.258Z,12.20
2022-11-17T11:56:53.228Z,12.57
2022-11-17T11:59:30.140Z,12.63
2022-11-17T12:01:57.673Z,12.65
2022-11-17T12:04:25.004Z,12.18
2022-11-17T12:06:56.831Z,12.90
2022-11-17T12:09:24.140Z,11.25
2022-11-17T12:12:01.548Z,12.57
2022-11-17T12:14:33.336Z,11.63
2022-11-17T12:17:17.484Z,10.95
2022-11-17T12:19:51.241Z,11.40
2022-11-17T12:22:38.913Z,11.25
2022-11-17T12:25:06.236Z,11.00
2022-11-17T12:27:37.022Z,11.32
2022-11-17T12:30:06.424Z,11.35
2022-11-17T12:32:47.224Z,10.25
2022-11-17T12:35:28.360Z,10.55
2022-11-17T12:38:15.407Z,10.57
2022-11-17T12:40:44.640Z,11.93
2022-11-17T12:43:18.241Z,11.45
2022-11-17T12:45:54.810Z,9.38
2022-11-17T12:48:33.388Z,9.40
2022-11-17T12:51:04.801Z,9.93
2022-11-17T12:53:38.277Z,9.77
2022-11-17T12:56:15.826Z,9.93
2022-11-17T12:58:46.616Z,9.10
2022-11-17T13:01:20.773Z,9.40
2022-11-17T13:04:00.113Z,9.40
2022-11-17T13:06:35.454Z,9.30
2022-11-17T13:09:09.316Z,9.05
2022-11-17T13:11:36.772Z,8.05
2022-11-17T13:14:11.545Z,8.68
2022-11-17T13:19:26.902Z,9.10
2022-11-17T13:22:14.174Z,9.40
2022-11-17T13:24:42.385Z,7.68
2022-11-17T13:27:22.656Z,8.75
2022-11-17T13:29:50.336Z,9.20
2022-11-17T13:32:23.188Z,8.80
2022-11-17T13:35:01.159Z,9.48
2022-11-17T13:37:29.759Z,8.80
2022-11-17T13:40:13.804Z,8.75
2022-11-17T13:42:41.040Z,8.20
2022-11-17T13:45:08.570Z,8.65
2022-11-17T13:47:39.466Z,8.32
2022-11-17T13:50:25.195Z,8.73
2022-11-17T13:55:20.652Z,7.75
2022-11-17T13:58:06.726Z,8.35
2022-11-17T14:00:34.450Z,7.55
2022-11-17T14:03:03.263Z,8.88
2022-11-17T14:05:33.892Z,8.50
2022-11-17T14:08:22.174Z,8.85
2022-11-17T14:10:49.421Z,7.85
2022-11-17T14:13:19.766Z,9.05
2022-11-17T14:15:53.872Z,9.82
2022-11-17T14:18:24.185Z,9.52
2022-11-17T14:21:04.445Z,9.85
2022-11-17T14:23:31.657Z,9.30
2022-11-17T14:25:58.837Z,9.32
2022-11-17T14:28:26.817Z,8.57
2022-11-17T14:30:55.390Z,10.52
2022-11-17T14:33:23.029Z,9.50
2022-11-17T14:35:57.184Z,8.95
2022-11-17T14:38:24.659Z,8.13
2022-11-17T14:40:53.081Z,9.45
2022-11-17T14:43:21.104Z,8.70
2022-11-17T14:45:48.883Z,8.88
2022-11-17T14:48:19.283Z,9.45
2022-11-17T14:50:47.087Z,9.25
2022-11-17T14:53:14.399Z,9.13
2022-11-17T14:55:41.575Z,8.80
2022-11-17T14:58:10.038Z,9.27
2022-11-17T15:00:37.689Z,8.63
2022-11-17T15:03:05.071Z,8.48
2022-11-17T15:05:32.545Z,9.65
2022-11-17T15:07:59.725Z,9.50
2022-11-17T15:10:27.003Z,9.90
2022-11-17T15:12:54.250Z,10.05
2022-11-17T15:15:21.811Z,10.88
2022-11-17T15:17:49.419Z,11.15
2022-11-17T15:20:17.286Z,10.32
2022-11-17T15:22:44.729Z,11.27
2022-11-17T15:25:12.305Z,12.00
2022-11-17T15:27:39.556Z,12.45
2022-11-17T15:30:07.113Z,12.35
2022-11-17T15:32:34.283Z,12.98
2022-11-17T15:35:01.441Z,12.40
2022-11-17T15:37:28.723Z,13.23
2022-11-17T15:39:56.020Z,13.93
2022-11-17T15:42:23.153Z,13.77
2022-11-17T15:44:50.445Z,14.10
2022-11-17T15:47:17.610Z,14.40
2022-11-17T15:49:46.955Z,12.98
2022-11-17T15:52:14.156Z,15.25
2022-11-17T15:54:41.319Z,14.27
2022-11-17T15:57:08.513Z,14.65
2022-11-17T15:59:35.702Z,15.48
2022-11-17T16:02:08.790Z,13.25
2022-11-17T16:04:36.673Z,15.13
2022-11-17T16:07:04.358Z,12.90
2022-11-17T16:09:31.685Z,12.82
2022-11-17T16:11:58.954Z,15.45
2022-11-17T16:14:26.253Z,15.35
2022-11-17T16:16:53.464Z,17.33
2022-11-17T16:19:20.678Z,14.35
2022-11-17T16:21:48.481Z,14.48
2022-11-17T16:24:15.708Z,14.40
2022-11-17T16:26:44.809Z,15.05
2022-11-17T16:29:12.132Z,14.20
2022-11-17T16:31:39.781Z,14.75
2022-11-17T16:34:08.660Z,13.07
2022-11-17T16:36:38.424Z,13.70
2022-11-17T16:39:07.085Z,13.55
2022-11-17T16:41:35.469Z,12.95
2022-11-17T16:44:03.297Z,13.70
2022-11-17T16:46:31.796Z,14.93
2022-11-17T16:49:03.221Z,14.68
2022-11-17T16:51:30.517Z,14.23
2022-11-17T16:53:58.924Z,14.38
2022-11-17T16:56:26.270Z,14.10
2022-11-17T16:58:54.662Z,14.00
2022-11-17T17:01:24.144Z,15.15
2022-11-17T17:03:55.871Z,14.30
2022-11-17T17:06:23.268Z,14.73
2022-11-17T17:08:54.225Z,14.68
2022-11-17T17:11:21.494Z,14.70
2022-11-17T17:13:48.672Z,14.70
2022-11-17T17:16:17.616Z,14.07
2022-11-17T17:18:44.950Z,14.70
2022-11-17T17:21:16.464Z,14.77
2022-11-17T17:23:45.213Z,15.95
2022-11-17T17:26:18.154Z,15.45
2022-11-17T17:28:46.368Z,14.32
2022-11-17T17:31:20.815Z,14.82
2022-11-17T17:36:17.169Z,15.35
2022-11-17T17:38:45.309Z,14.75
2022-11-17T17:41:15.046Z,14.70
2022-11-17T17:43:43.198Z,14.77
2022-11-17T17:46:15.591Z,15.50
2022-11-17T17:48:44.245Z,16.52
2022-11-17T17:51:12.610Z,14.73
2022-11-17T17:53:39.884Z,14.48
2022-11-17T17:56:14.950Z,15.82
2022-11-17T17:58:42.663Z,14.52
2022-11-17T18:01:21.003Z,15.90
2022-11-17T18:03:49.021Z,14.80
2022-11-17T18:06:17.213Z,14.55
2022-11-17T18:08:44.720Z,15.13
2022-11-17T18:11:19.383Z,15.57
2022-11-17T18:13:47.618Z,14.93
2022-11-17T18:16:16.611Z,14.63
2022-11-17T18:18:45.664Z,14.73
2022-11-17T18:21:14.348Z,15.82
2022-11-17T18:23:41.824Z,14.77
2022-11-17T18:26:09.954Z,13.90
2022-11-17T18:28:37.774Z,15.45
2022-11-17T18:31:05.674Z,14.88
2022-11-17T18:33:32.896Z,14.57
2022-11-17T18:36:09.944Z,13.77
2022-11-17T18:38:37.648Z,14.82
2022-11-17T18:41:05.740Z,15.77
2022-11-17T18:43:33.224Z,14.57
2022-11-17T18:46:07.690Z,15.02
2022-11-17T18:48:35.679Z,15.75
2022-11-17T18:51:20.230Z,16.05
2022-11-17T18:53:48.736Z,16.27
2022-11-17T18:56:17.239Z,15.73
2022-11-17T18:58:45.038Z,16.25
2022-11-17T19:01:14.821Z,15.65
2022-11-17T19:03:43.650Z,15.93
2022-11-17T19:06:11.449Z,15.43
2022-11-17T19:08:38.817Z,15.18
2022-11-17T19:11:06.967Z,16.20
2022-11-17T19:13:35.565Z,17.35
2022-11-17T19:16:19.181Z,16.58
2022-11-17T19:18:47.233Z,17.20
2022-11-17T19:21:15.725Z,16.85
2022-11-17T19:23:49.557Z,16.02
2022-11-17T19:28:45.760Z,16.17
2022-11-17T19:31:15.422Z,17.17
2022-11-17T19:33:42.909Z,16.17
2022-11-17T19:36:11.458Z,17.60
2022-11-17T19:38:39.107Z,17.02
2022-11-17T19:41:07.427Z,17.20
2022-11-17T19:43:37.918Z,17.33
2022-11-17T19:46:08.892Z,16.40
2022-11-17T19:48:36.107Z,16.90
2022-11-17T19:51:12.256Z,16.40
2022-11-17T19:53:42.210Z,16.08
2022-11-17T19:56:09.633Z,15.57
2022-11-17T19:58:37.024Z,16.40
2022-11-17T20:01:11.733Z,16.73
2022-11-17T20:03:39.298Z,15.85
2022-11-17T20:06:06.979Z,16.25
2022-11-17T20:08:34.283Z,16.98
2022-11-17T20:11:09.118Z,15.95
2022-11-17T20:13:37.319Z,15.75
2022-11-17T20:16:11.467Z,15.45
2022-11-17T20:18:39.607Z,16.67
2022-11-17T20:21:07.636Z,15.40
2022-11-17T20:23:35.329Z,16.02
2022-11-17T20:26:09.609Z,15.30
2022-11-17T20:28:37.765Z,15.05
2022-11-17T20:31:09.948Z,15.25
2022-11-17T20:33:38.254Z,15.75
2022-11-17T20:36:06.008Z,14.52
2022-11-17T20:38:33.318Z,15.55
2022-11-17T20:41:01.005Z,16.95
2022-11-17T20:43:28.866Z,16.08
2022-11-17T20:45:56.829Z,17.35
2022-11-17T20:48:24.669Z,17.10
2022-11-17T20:51:08.741Z,16.50
2022-11-17T20:53:35.964Z,15.48
2022-11-17T20:56:04.651Z,15.93
2022-11-17T20:58:32.177Z,16.27
2022-11-17T21:00:59.559Z,15.98
2022-11-17T21:03:27.645Z,15.77
2022-11-17T21:05:58.715Z,15.43
2022-11-17T21:08:27.390Z,16.02
2022-11-17T21:10:55.738Z,14.80
2022-11-17T21:13:23.022Z,14.75
2022-11-17T21:16:02.301Z,14.40
2022-11-17T21:18:29.558Z,14.85
2022-11-17T21:21:00.265Z,14.37
2022-11-17T21:23:28.117Z,13.90
2022-11-17T21:25:55.350Z,14.35
2022-11-17T21:28:22.859Z,13.35
2022-11-17T21:30:50.154Z,14.13
2022-11-17T21:33:17.344Z,14.82
2022-11-17T21:35:44.606Z,13.45
2022-11-17T21:38:11.844Z,14.82
2022-11-17T21:40:39.167Z,15.07
2022-11-17T21:43:06.364Z,15.65
2022-11-17T21:45:34.369Z,14.82
2022-11-17T21:48:01.752Z,14.68
2022-11-17T21:50:29.013Z,14.57
2022-11-17T21:52:56.250Z,14.52
2022-11-17T21:55:23.467Z,14.85
2022-11-17T21:57:51.606Z,13.85
2022-11-17T22:00:19.086Z,14.57
2022-11-17T22:02:46.450Z,15.82
2022-11-17T22:05:13.692Z,14.38
2022-11-17T22:07:40.887Z,14.25
2022-11-17T22:10:08.318Z,13.55
2022-11-17T22:12:35.572Z,14.18
2022-11-17T22:15:06.104Z,13.75
2022-11-17T22:17:37.554Z,15.02
2022-11-17T22:20:05.028Z,14.25
2022-11-17T22:22:32.244Z,13.30
2022-11-17T22:25:16.782Z,12.57
2022-11-17T22:27:46.698Z,13.32
2022-11-17T22:30:15.120Z,12.68
2022-11-17T22:32:45.069Z,14.02
2022-11-17T22:35:12.763Z,13.75
2022-11-17T22:37:39.931Z,12.95
2022-11-17T22:40:07.465Z,12.30
2022-11-17T22:42:34.640Z,13.35
2022-11-17T22:45:02.046Z,13.93
2022-11-17T22:47:29.693Z,13.18
2022-11-17T22:49:56.922Z,12.90
2022-11-17T22:52:24.106Z,12.52
2022-11-17T22:54:51.272Z,12.43
2022-11-17T22:57:18.436Z,12.45
2022-11-17T22:59:46.032Z,12.70
2022-11-17T23:02:13.221Z,12.65
2022-11-17T23:04:40.480Z,13.23
2022-11-17T23:07:07.737Z,12.88
2022-11-17T23:09:35.049Z,12.65
2022-11-17T23:12:02.425Z,12.93
2022-11-17T23:14:29.727Z,13.48
2022-11-17T23:16:56.960Z,12.85
2022-11-17T23:19:24.153Z,12.60
2022-11-17T23:21:51.296Z,13.38
2022-11-17T23:24:18.430Z,12.35
2022-11-17T23:26:45.625Z,13.43
2022-11-17T23:29:12.964Z,13.65
2022-11-17T23:31:40.360Z,14.15
2022-11-17T23:34:09.677Z,14.30
2022-11-17T23:36:36.952Z,13.93
2022-11-17T23:39:04.183Z,14.75
2022-11-17T23:41:31.345Z,15.63
2022-11-17T23:43:58.516Z,15.57
2022-11-17T23:46:26.328Z,16.33
2022-11-17T23:48:53.911Z,15.98
2022-11-17T23:51:25.083Z,17.15
2022-11-17T23:53:52.334Z,16.10
2022-11-17T23:56:22.801Z,16.77
2022-11-17T23:58:50.881Z,17.77
